Atlanta, Georgia
Traffic Map
Current Weather Conditions
Atlanta, Georgia
Broken Clouds
Broken Clouds
27°
Feels Like: 29°
Wind Chill: 27° Ceiling: 10000
Heat Index: 29° Visibility: 10mi
Dew Point: 21° Wind: 9mph
Humidity: 69% Direction: 90° (E)
Pressure: 30.07in Gusts: 0mph
Raw Report DataKATL 222252Z 09008KT 10SM FEW030 BKN100 BKN250 27/21 A3007 RMK AO2 SLP172 TCU DSNT N & SW T02720211
Traffic Incident Summary
Active as of:
Severity:
Category:
InformationThere was an issue retrieving the traffic information for this location. Please try a different location or try again shortly.
Advertisements
Track Severe Weather on mobile